Time;durP1;ratioP1;P1;durP2;ratioP2;P2;SDS_P1;SDS_P2;PMS_P1;PMS_P2;Temp;Humidity;BMP_temperature;BMP_pressure;BME280_temperature;BME280_humidity;BME280_pressure;Samples;Min_cycle;Max_cycle;Signal;HPM_P1;HPM_P2
2022/12/27 00:02:19;;;;;;;4.22;0.80;;;6.60;91.80;;;;;;4996084;28;20065;-67
2022/12/27 00:04:45;;;;;;;10.02;1.08;;;6.50;92.00;;;;;;4991836;28;20038;-68
2022/12/27 00:07:11;;;;;;;2.03;0.73;;;6.40;91.70;;;;;;4993265;28;20428;-67
2022/12/27 00:09:37;;;;;;;3.97;1.33;;;6.40;91.90;;;;;;4993026;28;20092;-68
2022/12/27 00:12:04;;;;;;;6.00;0.90;;;6.30;92.10;;;;;;4993534;28;20052;-67
2022/12/27 00:14:30;;;;;;;6.80;0.98;;;6.20;92.40;;;;;;4994436;28;20116;-68
2022/12/27 00:16:55;;;;;;;8.05;1.50;;;6.20;92.50;;;;;;4989979;28;20113;-68
2022/12/27 00:19:21;;;;;;;10.52;1.38;;;6.20;92.90;;;;;;4988999;28;20035;-68
2022/12/27 00:21:47;;;;;;;7.35;1.30;;;6.10;92.80;;;;;;4984406;28;20042;-68
2022/12/27 00:24:13;;;;;;;6.25;1.40;;;6.00;93.20;;;;;;4996946;28;20041;-67
2022/12/27 00:26:39;;;;;;;3.70;0.60;;;6.00;93.40;;;;;;4994638;28;20033;-68
2022/12/27 00:29:05;;;;;;;10.50;1.70;;;6.00;93.40;;;;;;4990805;28;20458;-68
2022/12/27 00:31:32;;;;;;;10.90;1.25;;;5.90;93.60;;;;;;4990356;28;20040;-68
2022/12/27 00:34:02;;;;;;;9.57;1.27;;;6.00;93.60;;;;;;4990996;28;20038;-68
2022/12/27 00:36:29;;;;;;;5.30;0.82;;;5.90;93.70;;;;;;4992193;28;20056;-68
2022/12/27 00:38:57;;;;;;;8.15;1.13;;;5.90;93.60;;;;;;4997978;28;20193;-68
2022/12/27 00:41:23;;;;;;;5.82;1.23;;;5.90;93.70;;;;;;4995752;28;20042;-68
2022/12/27 00:43:49;;;;;;;5.47;1.17;;;5.90;93.60;;;;;;4997799;28;20049;-68
2022/12/27 00:46:15;;;;;;;7.40;1.42;;;5.80;93.60;;;;;;4997552;28;20033;-68
2022/12/27 00:48:41;;;;;;;7.45;0.82;;;5.80;93.90;;;;;;4997635;28;20153;-67
2022/12/27 00:51:12;;;;;;;8.65;1.20;;;5.70;93.80;;;;;;4993441;28;20121;-68
2022/12/27 00:53:38;;;;;;;11.13;1.55;;;5.70;94.10;;;;;;4991466;28;20137;-68
2022/12/27 00:56:09;;;;;;;9.55;1.33;;;5.70;94.20;;;;;;4987248;28;20599;-67
2022/12/27 00:58:36;;;;;;;12.38;2.35;;;5.70;94.20;;;;;;4986574;28;20038;-67
2022/12/27 01:01:06;;;;;;;8.15;1.98;;;5.70;94.10;;;;;;4991171;28;20646;-68
2022/12/27 01:03:32;;;;;;;11.02;1.33;;;5.60;94.20;;;;;;4995224;28;20116;-68
2022/12/27 01:06:06;;;;;;;5.70;1.15;;;5.60;94.30;;;;;;4992009;28;20578;-68
2022/12/27 01:08:32;;;;;;;10.50;1.33;;;5.60;94.40;;;;;;4992514;28;20554;-68
2022/12/27 01:10:58;;;;;;;3.05;0.95;;;5.50;94.40;;;;;;4989433;28;20042;-67
2022/12/27 01:13:24;;;;;;;11.30;2.22;;;5.50;94.30;;;;;;4995512;28;20038;-67
2022/12/27 01:15:50;;;;;;;6.32;1.38;;;5.40;94.50;;;;;;4996344;28;20034;-68
2022/12/27 01:18:16;;;;;;;4.13;1.48;;;5.20;94.70;;;;;;4994310;28;20034;-68
2022/12/27 01:20:41;;;;;;;5.30;1.58;;;5.20;95.00;;;;;;4996152;28;20088;-68
2022/12/27 01:23:07;;;;;;;5.55;1.35;;;5.20;95.00;;;;;;4996658;28;20034;-67
2022/12/27 01:25:33;;;;;;;6.25;1.63;;;5.30;95.10;;;;;;4998358;28;20572;-68
2022/12/27 01:27:59;;;;;;;3.25;1.00;;;5.20;95.10;;;;;;4992255;28;20485;-68
2022/12/27 01:30:24;;;;;;;4.38;1.08;;;5.20;95.00;;;;;;4990517;28;20125;-67
2022/12/27 01:32:50;;;;;;;9.30;1.30;;;5.20;95.00;;;;;;4987717;28;20041;-68
2022/12/27 01:35:16;;;;;;;2.40;0.93;;;5.20;95.10;;;;;;4988122;28;20037;-68
2022/12/27 01:37:42;;;;;;;4.75;1.10;;;5.20;95.20;;;;;;4995971;28;20061;-67
2022/12/27 01:40:08;;;;;;;11.20;1.48;;;5.20;95.20;;;;;;4994311;28;20038;-67
2022/12/27 01:42:52;;;;;;;10.00;1.35;;;5.20;95.20;;;;;;4995092;28;20494;-68
2022/12/27 01:45:22;;;;;;;5.03;1.05;;;5.20;95.00;;;;;;4993121;28;20069;-67
2022/12/27 01:47:51;;;;;;;13.90;1.65;;;5.20;95.10;;;;;;4992373;28;20038;-68
2022/12/27 01:50:16;;;;;;;5.05;1.05;;;5.10;95.20;;;;;;5007182;28;20061;-67
2022/12/27 01:52:58;;;;;;;6.22;1.35;;;5.20;95.40;;;;;;4993096;28;20034;-68
2022/12/27 01:55:31;;;;;;;4.65;0.90;;;5.20;95.50;;;;;;4991005;28;20034;-68
2022/12/27 01:58:09;;;;;;;7.03;1.20;;;5.10;95.50;;;;;;4992997;28;20507;-67
2022/12/27 02:00:35;;;;;;;7.65;1.10;;;5.20;95.50;;;;;;4993452;28;20056;-67
2022/12/27 02:03:03;;;;;;;4.90;1.00;;;5.10;95.60;;;;;;4994247;28;20117;-67
2022/12/27 02:05:29;;;;;;;6.93;1.20;;;5.10;95.40;;;;;;4990944;28;20029;-68
2022/12/27 02:08:43;;;;;;;9.85;1.38;;;5.10;95.40;;;;;;4986749;28;20096;-68
2022/12/27 02:11:09;;;;;;;13.65;1.67;;;5.10;95.40;;;;;;4982853;28;20125;-68
2022/12/27 02:13:42;;;;;;;10.23;1.60;;;5.10;95.20;;;;;;4989085;28;20113;-67
2022/12/27 02:16:12;;;;;;;8.77;1.00;;;5.00;95.40;;;;;;4996376;28;20030;-67
2022/12/27 02:18:38;;;;;;;9.40;1.13;;;4.90;95.60;;;;;;4996337;28;20445;-68
2022/12/27 02:21:44;;;;;;;3.45;0.90;;;4.90;95.70;;;;;;4993963;28;20697;-67
2022/12/27 02:24:32;;;;;;;8.88;1.45;;;4.90;95.80;;;;;;4993541;28;20061;-67
2022/12/27 02:27:14;;;;;;;9.45;1.10;;;4.80;95.80;;;;;;4986988;28;20058;-67
2022/12/27 02:29:44;;;;;;;7.20;1.40;;;4.80;95.90;;;;;;4992430;28;20044;-67
2022/12/27 02:32:29;;;;;;;3.55;1.02;;;4.80;95.90;;;;;;4991740;28;20034;-68
2022/12/27 02:35:13;;;;;;;9.93;1.00;;;4.80;96.00;;;;;;4988465;28;20477;-68
2022/12/27 02:37:55;;;;;;;8.45;0.88;;;4.70;95.90;;;;;;4994545;28;20034;-68
2022/12/27 02:55:06;;;;;;;8.38;1.70;;;4.70;96.40;;;;;;4994215;28;20461;-67
2022/12/27 02:57:56;;;;;;;7.00;1.10;;;4.80;96.10;;;;;;4995956;28;20033;-68
2022/12/27 03:03:25;;;;;;;7.80;1.30;;;4.70;96.00;;;;;;4991462;28;20042;-68
2022/12/27 03:06:40;;;;;;;13.07;1.40;;;4.70;96.20;;;;;;4993005;28;20046;-68
2022/12/27 03:15:55;;;;;;;7.03;1.23;;;4.70;96.60;;;;;;4992873;28;20123;-67
2022/12/27 03:18:26;;;;;;;6.85;1.75;;;4.70;96.40;;;;;;4990747;28;20418;-68
2022/12/27 03:26:31;;;;;;;5.53;1.73;;;4.80;96.20;;;;;;4992884;28;20494;-68
2022/12/27 03:34:42;;;;;;;8.00;1.60;;;4.80;96.40;;;;;;4993915;28;20034;-67
2022/12/27 03:40:02;;;;;;;2.30;0.93;;;4.70;96.20;;;;;;4991635;28;20056;-68
2022/12/27 03:45:20;;;;;;;8.77;1.48;;;4.70;96.20;;;;;;4989245;28;20057;-68
2022/12/27 03:48:02;;;;;;;7.55;1.10;;;4.70;96.30;;;;;;4984123;28;20523;-67
2022/12/27 03:50:42;;;;;;;6.13;1.75;;;4.80;96.30;;;;;;4985134;28;20041;-67
2022/12/27 03:53:34;;;;;;;10.15;1.58;;;4.80;96.40;;;;;;4989926;28;20034;-67
2022/12/27 03:56:00;;;;;;;3.72;1.40;;;4.90;95.80;;;;;;4983021;28;20494;-67
2022/12/27 03:58:26;;;;;;;4.18;1.20;;;4.90;95.70;;;;;;4990858;28;20042;-67
2022/12/27 04:00:52;;;;;;;9.48;1.88;;;4.90;95.70;;;;;;4989604;28;20459;-67
2022/12/27 04:03:17;;;;;;;7.05;1.98;;;4.90;95.60;;;;;;4995478;28;20037;-68
2022/12/27 04:05:43;;;;;;;7.30;1.30;;;4.90;95.60;;;;;;4997409;28;20087;-67
2022/12/27 04:35:35;;;;;;;4.10;1.50;;;4.50;95.70;;;;;;4992610;28;20044;-68
2022/12/27 04:38:02;;;;;;;6.15;1.50;;;4.50;96.00;;;;;;4998495;28;20060;-68
2022/12/27 04:57:03;;;;;;;7.85;2.25;;;4.30;96.50;;;;;;4989257;28;20058;-68
2022/12/27 05:02:17;;;;;;;4.40;1.45;;;4.40;96.00;;;;;;4988521;28;20046;-68
2022/12/27 05:04:44;;;;;;;2.35;1.02;;;4.40;95.70;;;;;;5000142;28;20030;-68
2022/12/27 05:15:27;;;;;;;5.05;1.20;;;4.10;96.70;;;;;;4996572;28;20298;-67
2022/12/27 05:17:52;;;;;;;8.07;1.55;;;4.00;96.60;;;;;;4995116;28;20044;-68
2022/12/27 05:20:18;;;;;;;8.77;1.20;;;4.10;96.60;;;;;;4992995;28;20038;-68
2022/12/27 05:25:35;;;;;;;6.45;2.17;;;4.20;96.30;;;;;;4995864;28;20496;-67
2022/12/27 05:28:06;;;;;;;3.13;1.08;;;4.10;96.40;;;;;;4998225;28;20034;-68
2022/12/27 05:30:33;;;;;;;3.58;1.17;;;4.10;96.60;;;;;;4992547;28;20192;-67
2022/12/27 05:33:02;;;;;;;8.50;1.83;;;4.20;96.50;;;;;;4987328;28;20030;-68
2022/12/27 05:35:29;;;;;;;6.97;1.13;;;4.20;96.60;;;;;;4989601;28;20038;-68
2022/12/27 05:37:55;;;;;;;5.43;1.20;;;4.20;96.50;;;;;;4988450;28;20026;-67
2022/12/27 05:40:22;;;;;;;4.93;1.20;;;4.20;96.30;;;;;;4993478;28;20033;-67
2022/12/27 05:42:48;;;;;;;6.93;1.40;;;4.20;96.60;;;;;;4997525;28;20467;-67
2022/12/27 05:45:13;;;;;;;7.20;1.30;;;4.30;96.60;;;;;;4995579;28;20133;-67
2022/12/27 05:47:40;;;;;;;5.00;1.20;;;4.50;96.20;;;;;;4996174;28;20554;-67
2022/12/27 05:50:07;;;;;;;3.65;1.08;;;4.50;95.70;;;;;;4994452;28;20034;-68
2022/12/27 05:52:33;;;;;;;4.20;1.10;;;4.60;95.70;;;;;;4997046;28;20025;-68
2022/12/27 05:54:58;;;;;;;13.05;1.88;;;4.60;95.50;;;;;;4992036;28;20026;-68
2022/12/27 05:57:24;;;;;;;5.88;1.23;;;4.60;95.50;;;;;;4991466;28;20701;-67
2022/12/27 05:59:50;;;;;;;3.85;0.75;;;4.50;95.70;;;;;;4987112;28;20134;-68
2022/12/27 06:02:16;;;;;;;6.40;1.33;;;4.40;95.70;;;;;;4985785;28;20242;-67
2022/12/27 06:04:42;;;;;;;5.38;1.05;;;4.40;95.90;;;;;;4996146;28;20044;-68
2022/12/27 06:07:10;;;;;;;5.53;1.02;;;4.40;95.80;;;;;;4989649;28;20033;-67
2022/12/27 06:09:36;;;;;;;5.28;1.10;;;4.30;95.80;;;;;;4991057;28;20053;-67
2022/12/27 06:12:02;;;;;;;4.38;1.20;;;4.20;96.10;;;;;;4988893;28;20526;-66
2022/12/27 06:14:28;;;;;;;6.85;1.67;;;4.20;96.30;;;;;;4991104;28;20374;-66
2022/12/27 06:16:54;;;;;;;5.20;1.25;;;4.20;96.50;;;;;;4995453;28;20026;-66
2022/12/27 06:19:20;;;;;;;6.13;1.00;;;4.40;96.30;;;;;;4988011;28;20031;-66
2022/12/27 06:21:46;;;;;;;2.72;1.27;;;4.40;95.70;;;;;;4994442;28;20131;-66
2022/12/27 06:24:11;;;;;;;5.93;1.65;;;4.40;95.80;;;;;;4992772;28;20036;-66
2022/12/27 06:26:37;;;;;;;8.05;1.15;;;4.30;96.00;;;;;;4991312;28;20037;-66
2022/12/27 06:29:03;;;;;;;8.18;1.13;;;4.20;96.10;;;;;;4991680;28;20034;-66
2022/12/27 06:31:29;;;;;;;4.20;1.40;;;4.10;96.10;;;;;;4989543;28;20045;-66
2022/12/27 06:33:55;;;;;;;3.72;1.00;;;4.20;96.40;;;;;;4988742;28;20054;-66
2022/12/27 06:36:25;;;;;;;6.28;1.15;;;4.10;96.10;;;;;;4989898;28;20053;-67
2022/12/27 06:38:51;;;;;;;4.53;1.35;;;4.00;96.20;;;;;;4988608;28;20042;-66
2022/12/27 06:41:17;;;;;;;9.90;1.40;;;3.80;96.70;;;;;;4991424;28;20096;-66
2022/12/27 06:43:44;;;;;;;2.50;1.30;;;3.70;96.90;;;;;;4990803;28;20128;-69
2022/12/27 06:46:14;;;;;;;7.28;1.70;;;3.60;97.20;;;;;;4994360;28;20038;-69
2022/12/27 06:48:40;;;;;;;7.60;1.45;;;3.60;97.50;;;;;;4990072;28;20069;-66
2022/12/27 06:51:08;;;;;;;7.13;1.33;;;3.70;97.40;;;;;;4991239;28;20100;-66
2022/12/27 06:53:37;;;;;;;10.13;3.20;;;3.60;97.30;;;;;;4994137;28;20117;-66
2022/12/27 06:56:09;;;;;;;20.27;7.03;;;3.70;97.20;;;;;;4988158;28;20398;-66
2022/12/27 06:58:35;;;;;;;13.05;7.35;;;3.70;97.40;;;;;;4991612;28;20177;-66
2022/12/27 07:01:08;;;;;;;4.35;2.40;;;3.70;97.30;;;;;;4991266;28;20029;-66
2022/12/27 07:03:34;;;;;;;10.93;6.50;;;3.70;97.50;;;;;;4992748;28;20394;-69
2022/12/27 07:06:02;;;;;;;5.03;2.60;;;3.80;97.40;;;;;;4987311;28;20026;-67
2022/12/27 07:08:28;;;;;;;7.95;5.32;;;3.80;96.90;;;;;;4990838;28;20025;-67
2022/12/27 07:10:59;;;;;;;10.35;5.30;;;3.80;97.00;;;;;;4992600;28;20080;-67
2022/12/27 07:13:25;;;;;;;9.88;3.97;;;3.80;97.20;;;;;;4992793;28;20778;-67
2022/12/27 07:15:51;;;;;;;9.45;2.88;;;3.90;97.00;;;;;;5018913;28;20108;-67
2022/12/27 07:18:16;;;;;;;5.32;3.38;;;4.00;96.90;;;;;;4988750;28;20792;-67
2022/12/27 07:20:43;;;;;;;7.32;4.20;;;4.10;96.40;;;;;;4987655;28;20025;-67
2022/12/27 07:23:09;;;;;;;7.70;2.63;;;4.10;96.10;;;;;;4993867;28;20033;-66
2022/12/27 07:25:35;;;;;;;7.32;4.38;;;4.10;96.10;;;;;;4989027;28;20046;-67
2022/12/27 07:28:00;;;;;;;9.43;2.60;;;4.10;96.40;;;;;;4995084;28;20034;-67
2022/12/27 07:30:28;;;;;;;14.30;4.38;;;4.00;96.50;;;;;;4989707;28;20116;-68
2022/12/27 07:32:54;;;;;;;9.13;4.78;;;4.10;96.70;;;;;;4993599;28;20026;-67
2022/12/27 07:35:19;;;;;;;8.48;2.85;;;4.10;96.60;;;;;;4988843;28;20049;-67
2022/12/27 07:37:45;;;;;;;9.25;3.78;;;4.10;96.60;;;;;;4993642;28;20045;-66
2022/12/27 07:40:11;;;;;;;11.73;3.88;;;4.20;96.70;;;;;;4995218;28;20457;-67
2022/12/27 07:42:37;;;;;;;7.63;3.30;;;4.20;96.70;;;;;;4986589;28;20616;-67
2022/12/27 07:45:03;;;;;;;7.50;2.97;;;4.30;96.70;;;;;;4992253;28;20118;-67
2022/12/27 07:47:28;;;;;;;10.85;2.60;;;4.40;96.40;;;;;;4993694;28;20120;-68
2022/12/27 07:49:54;;;;;;;11.85;3.25;;;4.50;96.10;;;;;;4988793;28;20034;-67
2022/12/27 07:52:20;;;;;;;8.00;2.72;;;4.50;95.60;;;;;;4990091;28;20021;-67
2022/12/27 07:54:46;;;;;;;10.55;9.23;;;4.60;95.80;;;;;;4994660;28;20030;-68
2022/12/27 07:57:13;;;;;;;4.38;2.17;;;4.70;95.70;;;;;;4991846;28;20053;-67
2022/12/27 07:59:38;;;;;;;8.93;1.42;;;4.80;95.90;;;;;;4992687;28;20736;-68
2022/12/27 08:02:05;;;;;;;7.40;1.90;;;4.90;95.90;;;;;;4992534;28;20038;-68
2022/12/27 08:04:33;;;;;;;5.57;1.58;;;5.00;95.60;;;;;;4989379;28;20061;-68
2022/12/27 08:07:18;;;;;;;7.43;2.75;;;5.00;95.80;;;;;;4986899;28;20042;-68
2022/12/27 08:09:46;;;;;;;9.10;2.43;;;5.00;95.50;;;;;;4988821;28;20615;-67
2022/12/27 08:12:12;;;;;;;12.88;3.30;;;4.90;95.60;;;;;;4990895;28;20034;-67
2022/12/27 08:14:39;;;;;;;5.70;1.58;;;4.90;95.70;;;;;;4984143;28;20030;-67
2022/12/27 08:17:21;;;;;;;5.80;2.20;;;5.00;95.80;;;;;;4990440;28;20510;-67
2022/12/27 08:19:49;;;;;;;9.65;3.38;;;5.00;95.50;;;;;;4986908;28;20919;-67
2022/12/27 08:22:15;;;;;;;4.00;1.38;;;5.00;95.50;;;;;;4989198;28;20038;-67
2022/12/27 08:24:42;;;;;;;5.30;1.70;;;5.00;95.30;;;;;;4990953;28;20038;-67
2022/12/27 08:27:09;;;;;;;4.70;1.83;;;4.90;95.60;;;;;;4986137;28;20046;-67
2022/12/27 08:29:35;;;;;;;2.70;1.45;;;4.80;96.00;;;;;;4992360;28;20137;-67
2022/12/27 08:32:01;;;;;;;4.25;1.63;;;5.00;95.90;;;;;;4985933;28;20034;-67
2022/12/27 08:34:27;;;;;;;6.65;1.85;;;5.10;95.70;;;;;;4987901;28;20042;-67
2022/12/27 08:36:53;;;;;;;7.93;1.63;;;5.20;94.80;;;;;;4987825;28;20062;-67
2022/12/27 08:39:19;;;;;;;9.77;2.75;;;5.30;95.30;;;;;;4987591;28;20116;-67
2022/12/27 08:41:45;;;;;;;3.55;1.70;;;5.50;95.00;;;;;;4990727;28;20057;-68
2022/12/27 08:44:12;;;;;;;3.55;1.33;;;5.60;94.80;;;;;;4987841;28;20181;-68
2022/12/27 08:46:38;;;;;;;9.90;1.40;;;5.70;94.20;;;;;;4987061;28;20619;-67
2022/12/27 08:49:04;;;;;;;8.18;1.45;;;5.60;94.60;;;;;;4990471;28;20058;-68
2022/12/27 08:51:30;;;;;;;8.63;1.80;;;5.50;94.10;;;;;;4992139;28;20768;-68
2022/12/27 08:53:56;;;;;;;5.30;1.55;;;5.50;94.70;;;;;;4991098;28;20115;-67
2022/12/27 08:56:22;;;;;;;8.63;1.83;;;5.60;94.50;;;;;;4998072;28;20474;-68
2022/12/27 08:58:48;;;;;;;7.90;2.08;;;5.60;94.60;;;;;;4996227;28;20029;-67
2022/12/27 09:01:15;;;;;;;2.45;1.17;;;5.50;94.90;;;;;;4991231;28;20502;-67
2022/12/27 09:03:41;;;;;;;6.80;1.85;;;5.40;95.10;;;;;;4992570;28;20064;-68
2022/12/27 09:06:07;;;;;;;6.68;1.50;;;5.50;94.90;;;;;;4998118;28;20062;-67
2022/12/27 09:08:33;;;;;;;6.68;1.33;;;5.50;94.80;;;;;;4997174;28;20025;-67
2022/12/27 09:11:11;;;;;;;5.80;1.40;;;5.60;94.80;;;;;;4994303;28;20117;-67
2022/12/27 09:13:37;;;;;;;5.55;1.50;;;6.00;94.50;;;;;;4996035;28;20034;-68
2022/12/27 09:16:09;;;;;;;11.02;2.15;;;7.30;92.50;;;;;;4994339;28;20030;-67
2022/12/27 09:18:38;;;;;;;4.75;1.50;;;8.70;86.90;;;;;;4991853;28;20034;-68
2022/12/27 09:21:08;;;;;;;7.20;1.50;;;9.60;80.90;;;;;;4994114;28;20027;-68
2022/12/27 09:23:35;;;;;;;6.10;1.63;;;8.80;81.90;;;;;;4990620;28;20033;-67
2022/12/27 09:26:05;;;;;;;4.80;1.65;;;8.10;86.30;;;;;;4994232;28;20045;-67
2022/12/27 09:28:31;;;;;;;7.53;2.10;;;7.50;89.90;;;;;;4987604;28;20018;-67
2022/12/27 09:30:57;;;;;;;4.22;2.47;;;7.60;90.10;;;;;;4994422;28;20061;-68
2022/12/27 09:33:23;;;;;;;4.82;1.77;;;7.40;90.50;;;;;;4993461;28;20019;-68
2022/12/27 09:35:49;;;;;;;7.35;2.00;;;7.10;91.20;;;;;;4996271;28;20026;-68
2022/12/27 09:38:15;;;;;;;3.83;2.00;;;6.80;91.90;;;;;;4994687;28;20030;-67
2022/12/27 09:40:52;;;;;;;5.60;1.85;;;6.70;92.50;;;;;;4990589;28;20037;-68
2022/12/27 09:43:23;;;;;;;5.85;1.80;;;6.70;92.60;;;;;;4991272;28;20034;-68
2022/12/27 09:45:52;;;;;;;6.72;2.30;;;6.50;92.70;;;;;;4992730;28;20030;-68
2022/12/27 09:48:28;;;;;;;11.32;1.90;;;6.70;93.70;;;;;;4994626;28;20084;-68
2022/12/27 09:50:59;;;;;;;5.75;1.80;;;7.70;90.70;;;;;;4990853;28;20053;-67
2022/12/27 09:53:38;;;;;;;9.45;2.95;;;9.80;85.30;;;;;;5025834;28;20045;-68
2022/12/27 09:56:05;;;;;;;4.45;1.70;;;11.80;74.20;;;;;;4988168;28;20026;-67
2022/12/27 09:58:43;;;;;;;8.07;1.83;;;12.60;68.10;;;;;;4988707;28;20771;-68
2022/12/27 10:01:24;;;;;;;5.95;1.70;;;11.80;70.50;;;;;;4989260;28;20789;-68
2022/12/27 10:03:50;;;;;;;3.15;1.33;;;11.50;70.60;;;;;;4990701;28;20181;-68
2022/12/27 10:06:47;;;;;;;5.82;1.35;;;11.40;72.40;;;;;;4986282;28;20787;-68
2022/12/27 10:09:22;;;;;;;6.55;1.60;;;11.60;70.70;;;;;;4991229;28;20034;-67
2022/12/27 10:12:14;;;;;;;5.05;1.42;;;11.40;72.00;;;;;;4987302;28;20070;-68
2022/12/27 10:14:49;;;;;;;12.32;4.25;;;11.30;72.20;;;;;;4986360;28;20038;-68
2022/12/27 10:17:35;;;;;;;16.95;5.18;;;10.60;76.00;;;;;;4989685;28;20335;-68
2022/12/27 10:20:11;;;;;;;5.25;1.65;;;10.70;75.60;;;;;;4981631;28;20124;-68
2022/12/27 10:22:53;;;;;;;6.05;1.95;;;10.80;75.60;;;;;;4989171;28;20041;-68
2022/12/27 10:25:22;;;;;;;10.90;2.53;;;10.30;78.00;;;;;;4991991;28;20698;-68
2022/12/27 10:27:54;;;;;;;3.92;1.40;;;9.50;82.40;;;;;;4990011;28;20065;-68
2022/12/27 10:30:21;;;;;;;3.95;1.50;;;10.00;82.00;;;;;;4986116;28;20619;-69
2022/12/27 10:32:48;;;;;;;7.80;2.08;;;11.30;76.00;;;;;;4992377;28;20038;-67
2022/12/27 10:35:20;;;;;;;4.22;1.38;;;11.50;74.80;;;;;;4988562;28;20046;-68
2022/12/27 10:37:47;;;;;;;6.55;1.88;;;11.20;75.50;;;;;;4989760;28;20705;-67
2022/12/27 10:40:23;;;;;;;7.68;1.70;;;10.30;78.00;;;;;;4989503;28;20550;-67
2022/12/27 10:43:19;;;;;;;6.20;1.35;;;9.50;82.50;;;;;;4989779;28;20032;-68
2022/12/27 10:45:45;;;;;;;4.18;1.70;;;9.20;85.40;;;;;;4991328;28;20707;-68
2022/12/27 10:48:12;;;;;;;4.88;1.98;;;8.90;86.20;;;;;;4989394;28;20062;-68
2022/12/27 10:50:47;;;;;;;6.55;2.33;;;8.70;87.20;;;;;;4988521;28;20027;-68
2022/12/27 10:53:45;;;;;;;6.68;1.90;;;8.40;89.70;;;;;;4987552;28;20025;-68
2022/12/27 10:56:20;;;;;;;22.27;4.88;;;8.40;90.00;;;;;;4971374;28;20414;-68
2022/12/27 10:58:47;;;;;;;7.38;4.85;;;8.30;90.30;;;;;;4989922;28;20045;-68
2022/12/27 11:01:22;;;;;;;4.88;1.90;;;8.00;90.30;;;;;;4989063;28;20057;-67
2022/12/27 11:03:49;;;;;;;5.75;2.33;;;7.90;91.00;;;;;;4990254;28;20041;-68
2022/12/27 11:06:23;;;;;;;5.55;2.20;;;7.80;91.30;;;;;;4993329;28;20088;-68
2022/12/27 11:08:51;;;;;;;9.88;1.98;;;7.70;91.90;;;;;;4989993;28;20030;-68
2022/12/27 11:11:18;;;;;;;4.65;1.80;;;7.70;92.10;;;;;;4985565;28;20751;-68
2022/12/27 11:13:45;;;;;;;4.85;1.85;;;7.70;91.60;;;;;;4992136;28;20814;-68
2022/12/27 11:16:21;;;;;;;8.20;3.83;;;7.70;91.50;;;;;;4985030;28;20794;-69
2022/12/27 11:18:51;;;;;;;3.75;2.17;;;7.60;91.70;;;;;;4986002;28;20284;-66
2022/12/27 11:21:17;;;;;;;9.38;2.25;;;7.50;92.10;;;;;;4992577;28;20081;-66
2022/12/27 11:23:51;;;;;;;9.27;2.50;;;7.50;91.80;;;;;;4990544;28;20029;-66
2022/12/27 11:26:40;;;;;;;6.38;2.80;;;7.50;91.80;;;;;;4995466;28;20126;-66
2022/12/27 11:29:17;;;;;;;12.27;4.53;;;7.50;92.20;;;;;;4988806;28;20022;-69
2022/12/27 11:31:47;;;;;;;;;;;7.30;91.90;;;;;;4991346;28;20215;-68
2022/12/27 11:34:24;;;;;;;9.20;4.45;;;7.20;92.50;;;;;;4988048;28;20022;-68
2022/12/27 11:36:53;;;;;;;8.18;2.40;;;7.20;92.50;;;;;;5020859;28;20383;-68
2022/12/27 11:39:52;;;;;;;12.98;4.10;;;7.20;93.00;;;;;;4988597;28;20022;-68
2022/12/27 11:42:37;;;;;;;15.77;5.88;;;7.10;93.40;;;;;;4981496;28;20057;-68
2022/12/27 11:45:17;;;;;;;8.32;3.10;;;7.20;93.50;;;;;;4991935;28;20137;-68
2022/12/27 11:47:57;;;;;;;11.43;5.03;;;7.50;93.80;;;;;;4991396;28;20041;-68
2022/12/27 11:50:26;;;;;;;15.23;5.18;;;7.70;92.80;;;;;;5015632;28;20035;-68
2022/12/27 11:53:16;;;;;;;16.10;5.95;;;7.90;92.50;;;;;;4984251;28;20029;-68
2022/12/27 11:56:07;;;;;;;12.90;4.97;;;8.10;92.30;;;;;;4982412;28;20044;-79
2022/12/27 11:58:54;;;;;;;9.50;3.58;;;8.20;91.40;;;;;;4992112;28;20035;-69
2022/12/27 12:01:45;;;;;;;10.45;3.65;;;8.30;91.30;;;;;;4987938;28;20030;-69
2022/12/27 12:04:24;;;;;;;11.15;4.03;;;8.50;91.20;;;;;;4986152;28;20088;-69
2022/12/27 12:07:17;;;;;;;9.15;2.28;;;8.70;90.80;;;;;;4989518;28;20167;-68
2022/12/27 12:10:05;;;;;;;13.73;4.05;;;8.80;90.40;;;;;;4991956;28;20034;-73
2022/12/27 12:12:55;;;;;;;9.00;2.95;;;8.80;89.90;;;;;;4988604;28;20033;-68
2022/12/27 12:15:55;;;;;;;14.52;3.08;;;8.90;90.20;;;;;;4983571;28;20062;-68
2022/12/27 12:18:44;;;;;;;9.30;3.42;;;9.10;89.30;;;;;;4987982;28;20030;-68
2022/12/27 12:21:26;;;;;;;5.78;1.98;;;9.20;89.00;;;;;;4988902;28;20471;-67
2022/12/27 12:24:40;;;;;;;5.07;2.22;;;9.20;89.40;;;;;;4990354;28;20410;-68
2022/12/27 12:27:34;;;;;;;5.80;2.45;;;9.10;88.00;;;;;;4994264;28;20052;-69
2022/12/27 12:30:03;;;;;;;5.68;2.00;;;9.10;87.90;;;;;;4989432;28;20026;-68
2022/12/27 12:32:32;;;;;;;5.57;2.67;;;9.20;87.80;;;;;;4993701;28;20025;-68
2022/12/27 12:35:26;;;;;;;5.93;3.08;;;9.20;87.60;;;;;;4994938;28;20076;-69
2022/12/27 12:38:10;;;;;;;10.30;2.80;;;9.10;87.70;;;;;;4990869;28;20026;-69
2022/12/27 12:40:36;;;;;;;4.15;1.95;;;8.80;87.80;;;;;;4991557;28;20089;-68
2022/12/27 12:43:21;;;;;;;5.68;2.95;;;8.70;87.90;;;;;;4990008;28;20034;-68
2022/12/27 12:45:59;;;;;;;7.60;2.20;;;8.70;89.40;;;;;;4991568;28;20621;-69
2022/12/27 12:48:30;;;;;;;6.28;2.15;;;8.80;88.30;;;;;;4989976;28;20070;-69
2022/12/27 12:51:44;;;;;;;5.22;2.13;;;8.80;87.70;;;;;;4985922;28;20033;-69
2022/12/27 12:54:19;;;;;;;2.25;1.45;;;8.60;88.30;;;;;;4960746;28;20865;-69
2022/12/27 12:57:29;;;;;;;7.45;2.05;;;8.60;89.00;;;;;;4958894;28;20078;-69
2022/12/27 13:00:01;;;;;;;11.02;2.10;;;8.60;88.20;;;;;;4990228;28;20152;-69
2022/12/27 13:03:04;;;;;;;7.38;1.80;;;8.50;88.90;;;;;;4993671;28;20034;-69
2022/12/27 13:05:36;;;;;;;8.80;2.47;;;8.50;88.80;;;;;;4993760;28;20022;-68
2022/12/27 13:08:18;;;;;;;7.82;2.17;;;8.50;89.00;;;;;;4992303;28;20785;-68
2022/12/27 13:11:02;;;;;;;4.05;1.60;;;8.50;89.30;;;;;;4996748;28;20422;-69
2022/12/27 13:14:19;;;;;;;4.60;1.83;;;8.60;89.40;;;;;;4989561;28;20486;-68
2022/12/27 13:16:50;;;;;;;6.05;1.60;;;8.60;89.30;;;;;;4983037;28;20117;-69
2022/12/27 13:20:00;;;;;;;8.45;2.13;;;8.50;88.60;;;;;;4992033;28;20064;-69
2022/12/27 13:22:46;;;;;;;4.18;1.98;;;8.50;89.20;;;;;;4976700;28;20046;-69
2022/12/27 13:25:29;;;;;;;12.30;2.30;;;8.40;89.60;;;;;;4984127;28;20049;-69
2022/12/27 13:28:33;;;;;;;10.30;3.25;;;8.50;89.80;;;;;;4993221;28;20038;-69
2022/12/27 13:31:19;;;;;;;9.90;2.38;;;8.40;89.40;;;;;;4993702;28;20104;-69
2022/12/27 13:34:14;;;;;;;5.73;2.20;;;8.40;88.90;;;;;;4995359;28;20101;-69
2022/12/27 13:37:05;;;;;;;6.82;1.90;;;8.20;89.00;;;;;;4996898;28;20026;-69
2022/12/27 13:39:59;;;;;;;6.95;2.13;;;8.00;88.40;;;;;;4991951;28;20030;-68
2022/12/27 13:42:43;;;;;;;10.43;2.00;;;7.90;90.20;;;;;;4989011;28;20030;-69
2022/12/27 13:45:48;;;;;;;5.53;1.85;;;7.80;90.30;;;;;;4991442;28;20036;-69
2022/12/27 13:48:51;;;;;;;7.05;1.65;;;7.80;90.50;;;;;;4995074;28;20078;-69
2022/12/27 13:51:30;;;;;;;9.52;3.00;;;7.70;90.70;;;;;;4989008;28;20041;-69
2022/12/27 13:54:07;;;;;;;17.83;4.32;;;7.70;90.40;;;;;;5019398;28;20774;-69
2022/12/27 13:56:51;;;;;;;6.10;3.00;;;7.60;90.80;;;;;;4988724;28;20022;-70
2022/12/27 13:59:52;;;;;;;7.20;2.03;;;7.50;90.90;;;;;;4995111;28;20073;-69
2022/12/27 14:02:35;;;;;;;8.10;2.40;;;7.40;91.60;;;;;;4996679;28;20030;-69
2022/12/27 14:05:01;;;;;;;11.35;3.60;;;7.50;91.50;;;;;;4991764;28;20454;-69
2022/12/27 14:07:30;;;;;;;10.40;2.53;;;7.40;91.20;;;;;;5006615;28;21145;-69
2022/12/27 14:10:03;;;;;;;8.50;1.60;;;7.50;91.10;;;;;;4991106;28;20065;-69
2022/12/27 14:12:40;;;;;;;9.75;1.80;;;7.50;91.10;;;;;;4994723;28;20116;-69
2022/12/27 14:15:12;;;;;;;5.80;1.77;;;7.40;91.00;;;;;;4989409;28;20034;-68
2022/12/27 14:18:19;;;;;;;2.15;1.67;;;7.40;90.90;;;;;;4991112;28;20038;-69
2022/12/27 14:21:14;;;;;;;18.15;2.30;;;7.40;91.10;;;;;;4991619;28;20592;-69
2022/12/27 14:24:13;;;;;;;6.35;1.98;;;7.50;91.00;;;;;;4992338;28;20051;-70
2022/12/27 14:27:17;;;;;;;4.95;2.42;;;7.30;91.10;;;;;;4976155;28;20046;-69
2022/12/27 14:29:58;;;;;;;4.32;1.83;;;7.10;91.70;;;;;;4981991;28;20372;-68
2022/12/27 14:32:42;;;;;;;5.38;1.77;;;7.00;91.70;;;;;;5028658;28;20037;-68
2022/12/27 14:35:32;;;;;;;5.10;1.42;;;7.00;91.90;;;;;;4994372;28;20810;-68
2022/12/27 14:38:45;;;;;;;4.88;2.08;;;7.00;91.80;;;;;;4990476;28;20026;-69
2022/12/27 14:41:50;;;;;;;6.55;1.85;;;7.00;91.80;;;;;;4976783;28;20143;-72
2022/12/27 14:44:53;;;;;;;6.85;1.40;;;7.00;91.90;;;;;;4969522;28;20468;-68
2022/12/27 14:47:53;;;;;;;6.95;2.00;;;7.00;92.10;;;;;;4990012;28;20062;-67
2022/12/27 14:50:49;;;;;;;3.88;1.60;;;6.90;91.80;;;;;;4990896;28;20742;-67
2022/12/27 14:53:15;;;;;;;7.95;1.92;;;6.90;91.90;;;;;;4991133;28;20030;-67
2022/12/27 14:56:08;;;;;;;9.98;1.90;;;6.80;92.00;;;;;;4992046;28;20034;-68
2022/12/27 14:59:01;;;;;;;5.28;1.75;;;6.70;92.30;;;;;;4990647;28;20129;-67
2022/12/27 15:02:01;;;;;;;4.45;1.98;;;6.70;92.40;;;;;;4990420;28;20040;-68
2022/12/27 15:04:51;;;;;;;7.30;2.13;;;6.60;92.50;;;;;;4990317;28;20041;-68
2022/12/27 15:07:49;;;;;;;5.35;2.00;;;6.60;92.80;;;;;;4982091;28;20072;-67
2022/12/27 15:10:20;;;;;;;4.07;2.08;;;6.60;93.00;;;;;;4990032;28;20038;-67
2022/12/27 15:12:59;;;;;;;7.57;2.67;;;6.60;92.90;;;;;;5022769;28;20137;-67